You are listening to:
KFIT CTAF - Fitchburg, Massachusetts, United States

KFIT 161352Z AUTO 30006KT 10SM CLR M03/M12 A3022 RMK AO2 SLP237 T10281122

If stream does not start automatically press the play button